Share

Atiramapattinam, India

Tiruchirappalli (VOTR) Elev 289 ft | 10.77 °N, 78.71 °E | Change Station

Current weather conditions updated 25 minutes ago

Partly Cloudy
Partly Cloudy
84 °F
Feels Like 90 °F
N
2
Wind Variable Wind from Variable
Sunrise 6:00 AM
Sunset 6:23 PM
Moon Waning Gibbous

Tomorrow is forecast to be Much Cooler than today.

Pressure 29.83 in
Visibility 3.7 miles
Clouds Few 1600 ft
Heat Index 90 °F
Dew Point 72 °F
Humidity 66%
Rainfall 0.00 in
Snow Depth Not available.
UV 0 out of 16
Pollen Not available.
Air Quality Not available.
Flu Activity Not available.
METAR VOTR 191710Z VRB02KT 6000 FEW016 29/22 Q1010 NOSIG

More Conditions Fewer Conditions

Pressure 29.83 in
Visibility 3.7 miles
Clouds Few 1600 ft
Heat Index 90 °F
Dew Point 72 °F
Humidity 66%
Rainfall 0.00 in
Snow Depth Not available.
UV 0 out of 16
Pollen Not available.
Air Quality Not available.
Flu Activity Not available.
METAR VOTR 191710Z VRB02KT 6000 FEW016 29/22 Q1010 NOSIG

More Conditions Fewer Conditions

10-Day Weather Forecast

Almanac

Astronomy

Apr. 19, 2014 Rise Set
Actual Time 6:00 AM IST 6:23 PM IST
Civil Twilight 5:38 AM IST 6:44 PM IST
Nautical Twilight 5:13 AM IST 7:09 PM IST
Astronomical Twilight 4:48 AM IST 7:35 PM IST
Moon 10:15 PM IST 9:15 AM IST
Length of Visible Light 13h 06m
Length of Day
12h 23m
Tomorrow will be 0m 32s longer.
Waning Gibbous, 78% of the Moon is Illuminated
Today
Waning Gibbous
Apr 22
Last Quarter
Apr 29
New
May 6
First Quarter
May 14
Full

Today's Extremes

Country Highs Country Lows

Community

  • A Glorious Morning
    A Glorious Morning
  • Tender Rays Of Hope
    Tender Rays Of Hope
  • Bleeding Hearts
    Bleeding Hearts
  • Sunset Silhouettes
    Sunset Silhouettes
  • FL sunset Perico Isle
    FL sunset Perico Isle

WunderPhotos

Upload Photos

1,702,810 photos uploaded!

WunderBlogs® & News

Nearby

Snow Depth

Not available.

Coastal Water Temperatures

Place Temperature
No Stations Reporting

Earthquake Activity

City Distance Mag. Time & Date
No recent earthquake activity has been reported nearby.
Minimum magnitude displayed is 2.5.

Nearby Weather Stations

There are no personal weather stations in this area.

What do you think?

We're not finished. Please let us know what you like, what you don't like, and what you are still missing.